createdAt,value
2022-12-09T00:01:33.703Z,16.42
2022-12-09T00:04:01.633Z,17.33
2022-12-09T00:06:30.987Z,17.42
2022-12-09T00:08:59.086Z,18.48
2022-12-09T00:11:27.816Z,18.30
2022-12-09T00:13:57.847Z,18.13
2022-12-09T00:16:26.716Z,15.90
2022-12-09T00:18:56.646Z,16.58
2022-12-09T00:21:33.188Z,17.88
2022-12-09T00:24:04.459Z,17.67
2022-12-09T00:26:33.573Z,16.10
2022-12-09T00:29:02.183Z,19.40
2022-12-09T00:31:33.356Z,18.65
2022-12-09T00:34:04.492Z,17.52
2022-12-09T00:36:33.373Z,17.92
2022-12-09T00:39:02.013Z,19.52
2022-12-09T00:41:31.426Z,19.38
2022-12-09T00:43:59.886Z,18.80
2022-12-09T00:46:28.258Z,19.02
2022-12-09T00:48:56.315Z,19.95
2022-12-09T00:51:25.254Z,18.40
2022-12-09T00:53:55.930Z,17.80
2022-12-09T00:56:26.426Z,18.95
2022-12-09T00:58:55.440Z,18.85
2022-12-09T01:01:24.488Z,19.52
2022-12-09T01:03:52.709Z,18.98
2022-12-09T01:06:23.841Z,18.75
2022-12-09T01:08:52.330Z,19.17
2022-12-09T01:11:25.419Z,19.58
2022-12-09T01:13:54.166Z,17.90
2022-12-09T01:16:26.709Z,19.13
2022-12-09T01:18:57.504Z,18.92
2022-12-09T01:21:29.598Z,19.13
2022-12-09T01:23:57.599Z,19.27
2022-12-09T01:26:27.283Z,18.23
2022-12-09T01:28:57.535Z,20.10
2022-12-09T01:31:26.643Z,18.77
2022-12-09T01:33:56.393Z,18.45
2022-12-09T01:36:28.051Z,18.80
2022-12-09T01:38:58.297Z,17.55
2022-12-09T01:41:28.738Z,16.52
2022-12-09T01:44:19.789Z,16.55
2022-12-09T01:46:48.397Z,15.00
2022-12-09T01:49:38.711Z,14.23
2022-12-09T01:52:14.153Z,16.05
2022-12-09T01:54:45.986Z,14.82
2022-12-09T01:57:15.956Z,15.27
2022-12-09T01:59:45.548Z,13.85
2022-12-09T02:02:17.748Z,14.43
2022-12-09T02:04:48.927Z,14.68
2022-12-09T02:07:19.792Z,14.63
2022-12-09T02:09:53.221Z,14.13
2022-12-09T02:12:33.727Z,14.23
2022-12-09T02:15:33.259Z,13.35
2022-12-09T02:18:17.983Z,12.70
2022-12-09T02:20:56.786Z,14.38
2022-12-09T02:23:51.033Z,13.15
2022-12-09T02:26:36.509Z,12.07
2022-12-09T02:29:31.197Z,13.32
2022-12-09T02:32:17.947Z,13.10
2022-12-09T02:35:05.866Z,12.55
2022-12-09T02:37:51.645Z,13.38
2022-12-09T02:40:29.148Z,14.07
2022-12-09T02:42:58.451Z,12.25
2022-12-09T02:45:30.637Z,13.00
2022-12-09T02:48:02.744Z,12.88
2022-12-09T02:50:36.167Z,13.60
2022-12-09T02:53:08.056Z,12.93
2022-12-09T02:55:37.596Z,13.57
2022-12-09T02:58:05.499Z,14.07
2022-12-09T03:00:39.509Z,12.70
2022-12-09T03:03:13.299Z,12.53
2022-12-09T03:05:49.555Z,14.07
2022-12-09T03:08:23.478Z,13.10
2022-12-09T03:11:06.338Z,14.40
2022-12-09T03:13:41.170Z,14.43
2022-12-09T03:16:20.945Z,14.82
2022-12-09T03:18:55.505Z,14.37
2022-12-09T03:21:26.438Z,15.00
2022-12-09T03:23:56.909Z,15.65
2022-12-09T03:26:28.541Z,16.17
2022-12-09T03:29:09.258Z,16.42
2022-12-09T03:31:39.627Z,15.73
2022-12-09T03:34:10.961Z,16.42
2022-12-09T03:36:41.501Z,15.50
2022-12-09T03:39:16.384Z,15.05
2022-12-09T03:41:53.571Z,16.00
2022-12-09T03:44:51.117Z,14.23
2022-12-09T03:47:19.085Z,14.93
2022-12-09T03:49:47.652Z,14.73
2022-12-09T03:52:51.072Z,15.60
2022-12-09T03:55:44.440Z,15.10
2022-12-09T03:58:14.395Z,14.65
2022-12-09T04:00:42.922Z,15.30
2022-12-09T04:03:14.799Z,15.32
2022-12-09T04:05:43.289Z,15.52
2022-12-09T04:08:11.606Z,14.85
2022-12-09T04:10:39.581Z,13.85
2022-12-09T04:13:07.431Z,14.77
2022-12-09T04:15:35.339Z,15.25
2022-12-09T04:18:03.263Z,15.00
2022-12-09T04:20:31.472Z,15.20
2022-12-09T04:22:59.571Z,15.05
2022-12-09T04:25:27.544Z,14.20
2022-12-09T04:27:55.787Z,14.43
2022-12-09T04:30:23.654Z,13.85
2022-12-09T04:32:51.786Z,14.18
2022-12-09T04:35:19.867Z,15.17
2022-12-09T04:37:48.605Z,15.57
2022-12-09T04:40:22.823Z,13.73
2022-12-09T04:42:51.988Z,14.57
2022-12-09T04:45:20.297Z,14.60
2022-12-09T04:47:48.586Z,15.15
2022-12-09T04:50:17.259Z,13.55
2022-12-09T04:52:45.536Z,14.80
2022-12-09T04:55:14.258Z,14.77
2022-12-09T04:57:43.044Z,14.47
2022-12-09T05:00:12.341Z,13.83
2022-12-09T05:02:40.943Z,13.67
2022-12-09T05:05:09.807Z,13.57
2022-12-09T05:07:38.027Z,14.60
2022-12-09T05:10:07.127Z,12.20
2022-12-09T05:12:36.064Z,12.87
2022-12-09T05:15:04.702Z,13.03
2022-12-09T05:17:32.614Z,12.30
2022-12-09T05:20:00.981Z,14.00
2022-12-09T05:22:29.293Z,13.23
2022-12-09T05:24:57.672Z,13.57
2022-12-09T05:27:25.569Z,13.23
2022-12-09T05:29:53.766Z,13.40
2022-12-09T05:32:21.677Z,13.20
2022-12-09T05:34:49.666Z,13.77
2022-12-09T05:37:17.767Z,14.23
2022-12-09T05:39:45.910Z,13.90
2022-12-09T05:42:13.865Z,13.90
2022-12-09T05:44:41.806Z,15.90
2022-12-09T05:47:09.995Z,15.20
2022-12-09T05:49:39.049Z,13.67
2022-12-09T05:52:07.374Z,15.80
2022-12-09T05:54:35.380Z,15.63
2022-12-09T05:57:04.467Z,15.27
2022-12-09T05:59:32.809Z,15.47
2022-12-09T06:02:03.747Z,15.43
2022-12-09T06:04:36.797Z,15.97
2022-12-09T06:07:05.236Z,15.20
2022-12-09T06:09:33.893Z,13.70
2022-12-09T06:12:03.021Z,14.40
2022-12-09T06:14:31.401Z,15.10
2022-12-09T06:16:59.585Z,14.90
2022-12-09T06:19:27.731Z,15.40
2022-12-09T06:21:55.979Z,14.30
2022-12-09T06:24:24.034Z,14.47
2022-12-09T06:26:54.688Z,13.83
2022-12-09T06:29:23.066Z,14.93
2022-12-09T06:31:51.029Z,13.77
2022-12-09T06:34:19.545Z,13.30
2022-12-09T06:36:47.562Z,14.67
2022-12-09T06:39:15.991Z,14.27
2022-12-09T06:41:44.450Z,14.37
2022-12-09T06:44:17.193Z,14.83
2022-12-09T06:46:51.261Z,13.50
2022-12-09T06:49:19.557Z,13.13
2022-12-09T06:51:48.012Z,13.30
2022-12-09T06:54:16.637Z,14.47
2022-12-09T06:56:44.789Z,13.70
2022-12-09T06:59:13.143Z,14.67
2022-12-09T07:01:41.699Z,15.07
2022-12-09T07:04:13.653Z,14.03
2022-12-09T07:06:44.336Z,15.30
2022-12-09T07:09:21.209Z,14.10
2022-12-09T07:11:50.275Z,13.50
2022-12-09T07:14:22.102Z,14.10
2022-12-09T07:16:50.504Z,15.07
2022-12-09T07:19:21.339Z,13.83
2022-12-09T07:21:50.884Z,15.50
2022-12-09T07:24:20.300Z,13.63
2022-12-09T07:26:49.392Z,14.20
2022-12-09T07:29:18.750Z,13.40
2022-12-09T07:31:48.721Z,14.13
2022-12-09T07:34:17.876Z,16.23
2022-12-09T07:36:47.355Z,14.47
2022-12-09T07:39:18.560Z,14.33
2022-12-09T07:41:48.407Z,16.10
2022-12-09T07:44:16.768Z,15.10
2022-12-09T07:46:45.004Z,14.67
2022-12-09T07:49:14.327Z,14.03
2022-12-09T07:51:43.298Z,16.27
2022-12-09T07:54:17.067Z,15.87
2022-12-09T07:56:45.677Z,14.67
2022-12-09T07:59:15.344Z,16.47
2022-12-09T08:01:45.375Z,16.27
2022-12-09T08:04:13.869Z,17.73
2022-12-09T08:06:42.739Z,16.83
2022-12-09T08:09:13.582Z,15.60
2022-12-09T08:11:42.515Z,16.93
2022-12-09T08:14:13.320Z,16.97
2022-12-09T08:16:43.442Z,17.50
2022-12-09T08:19:13.456Z,19.90
2022-12-09T08:21:42.393Z,15.77
2022-12-09T08:24:12.867Z,14.43
2022-12-09T08:26:42.044Z,15.23
2022-12-09T08:29:13.040Z,15.13
2022-12-09T08:31:43.656Z,16.63
2022-12-09T08:34:13.150Z,19.17
2022-12-09T08:36:42.438Z,19.03
2022-12-09T08:39:12.409Z,17.90
2022-12-09T08:41:41.173Z,17.57
2022-12-09T08:44:17.440Z,17.30
2022-12-09T08:46:49.266Z,17.13
2022-12-09T08:49:20.025Z,16.70
2022-12-09T08:51:50.309Z,17.13
2022-12-09T08:54:19.691Z,15.77
2022-12-09T08:56:50.066Z,18.93
2022-12-09T08:59:18.812Z,18.00
2022-12-09T09:01:48.474Z,18.87
2022-12-09T09:04:22.831Z,17.83
2022-12-09T09:06:52.666Z,18.63
2022-12-09T09:09:22.556Z,17.97
2022-12-09T09:11:51.292Z,18.13
2022-12-09T09:14:20.061Z,18.13
2022-12-09T09:16:48.429Z,17.57
2022-12-09T09:19:20.630Z,17.37
2022-12-09T09:21:49.872Z,17.83
2022-12-09T09:24:20.838Z,18.03
2022-12-09T09:26:51.719Z,19.10
2022-12-09T09:29:22.141Z,18.80
2022-12-09T09:31:56.207Z,19.40
2022-12-09T09:34:27.034Z,17.65
2022-12-09T09:36:56.670Z,16.47
2022-12-09T09:39:25.653Z,17.93
2022-12-09T09:42:08.722Z,17.97
2022-12-09T09:44:43.388Z,16.87
2022-12-09T09:47:40.081Z,17.67
2022-12-09T09:50:41.880Z,16.63
2022-12-09T09:53:27.531Z,15.97
2022-12-09T09:56:07.202Z,16.47
2022-12-09T09:59:12.105Z,16.00
2022-12-09T10:01:40.846Z,16.73
2022-12-09T10:04:37.838Z,16.47
2022-12-09T10:07:42.229Z,14.90
2022-12-09T10:10:34.726Z,14.00
2022-12-09T10:13:44.175Z,15.30
2022-12-09T10:16:31.317Z,15.00
2022-12-09T10:19:08.909Z,15.17
2022-12-09T10:21:41.100Z,13.60
2022-12-09T10:24:24.073Z,11.70
2022-12-09T10:27:38.344Z,14.13
2022-12-09T10:30:16.520Z,15.83
2022-12-09T10:32:45.860Z,13.00
2022-12-09T10:35:20.662Z,15.23
2022-12-09T10:40:23.931Z,14.17
2022-12-09T10:43:14.534Z,15.03
2022-12-09T10:46:17.434Z,14.47
2022-12-09T10:48:56.133Z,14.65
2022-12-09T10:51:34.724Z,14.67
2022-12-09T10:54:41.700Z,10.67
2022-12-09T10:57:13.547Z,12.63
2022-12-09T10:59:58.704Z,12.87
2022-12-09T11:02:28.735Z,15.47
2022-12-09T11:05:17.247Z,13.88
2022-12-09T11:07:50.132Z,13.13
2022-12-09T11:10:22.336Z,13.70
2022-12-09T11:12:53.376Z,13.73
2022-12-09T11:15:54.419Z,13.63
2022-12-09T11:18:32.958Z,11.88
2022-12-09T11:21:04.900Z,11.18
2022-12-09T11:23:36.676Z,11.77
2022-12-09T11:26:07.721Z,12.95
2022-12-09T11:28:39.254Z,11.77
2022-12-09T11:34:18.138Z,10.68
2022-12-09T11:36:49.993Z,10.88
2022-12-09T11:39:27.006Z,11.80
2022-12-09T11:42:17.673Z,11.60
2022-12-09T11:45:06.662Z,11.82
2022-12-09T11:50:31.725Z,11.07
2022-12-09T11:53:11.841Z,11.35
2022-12-09T11:55:47.213Z,11.90
2022-12-09T11:58:20.308Z,11.60
2022-12-09T12:01:03.860Z,11.88
2022-12-09T12:03:48.682Z,11.75
2022-12-09T12:06:23.828Z,10.95
2022-12-09T12:11:40.673Z,9.80
2022-12-09T12:14:17.525Z,9.95
2022-12-09T12:17:16.489Z,9.93
2022-12-09T12:19:49.769Z,11.15
2022-12-09T12:22:43.732Z,11.27
2022-12-09T12:25:21.177Z,11.13
2022-12-09T12:28:18.670Z,11.20
2022-12-09T12:31:06.720Z,9.70
2022-12-09T12:34:16.238Z,11.60
2022-12-09T12:36:59.559Z,10.40
2022-12-09T12:40:06.016Z,10.40
2022-12-09T12:42:41.352Z,10.50
2022-12-09T12:45:42.619Z,10.80
2022-12-09T12:48:39.195Z,10.40
2022-12-09T12:51:43.662Z,8.20
2022-12-09T12:54:44.019Z,9.77
2022-12-09T12:57:29.866Z,9.88
2022-12-09T13:00:08.269Z,10.48
2022-12-09T13:02:59.976Z,10.25
2022-12-09T13:05:37.316Z,9.50
2022-12-09T13:08:28.186Z,9.90
2022-12-09T13:10:58.299Z,10.02
2022-12-09T13:13:32.333Z,9.68
2022-12-09T13:16:08.900Z,9.80
2022-12-09T13:18:39.902Z,9.90
2022-12-09T13:21:09.915Z,9.15
2022-12-09T13:24:03.680Z,9.07
2022-12-09T13:26:55.647Z,9.00
2022-12-09T13:29:40.098Z,9.30
2022-12-09T13:32:32.394Z,10.40
2022-12-09T13:35:20.109Z,9.13
2022-12-09T13:37:50.247Z,9.68
2022-12-09T13:40:21.701Z,9.20
2022-12-09T13:43:04.090Z,8.52
2022-12-09T13:45:50.671Z,9.75
2022-12-09T13:48:19.191Z,9.25
2022-12-09T13:50:51.680Z,9.98
2022-12-09T13:53:20.059Z,9.05
2022-12-09T13:56:03.593Z,8.88
2022-12-09T13:58:53.282Z,9.15
2022-12-09T14:01:44.481Z,9.20
2022-12-09T14:04:16.839Z,10.48
2022-12-09T14:06:45.759Z,9.60
2022-12-09T14:09:40.255Z,10.13
2022-12-09T14:12:11.885Z,9.07
2022-12-09T14:14:51.287Z,9.07
2022-12-09T14:17:30.812Z,8.80
2022-12-09T14:20:20.301Z,10.32
2022-12-09T14:23:09.885Z,9.85
2022-12-09T14:25:38.404Z,10.07
2022-12-09T14:28:12.923Z,9.63
2022-12-09T14:31:04.758Z,9.48
2022-12-09T14:33:43.384Z,9.52
2022-12-09T14:36:14.333Z,10.02
2022-12-09T14:42:01.530Z,9.23
2022-12-09T14:45:03.437Z,10.25
2022-12-09T14:47:39.485Z,10.23
2022-12-09T14:50:20.228Z,10.20
2022-12-09T14:53:04.185Z,9.65
2022-12-09T14:55:37.838Z,10.10
2022-12-09T14:58:21.012Z,10.38
2022-12-09T15:01:02.757Z,8.57
2022-12-09T15:03:35.522Z,9.52
2022-12-09T15:06:18.834Z,9.35
2022-12-09T15:08:50.933Z,9.60
2022-12-09T15:11:22.223Z,9.57
2022-12-09T15:13:52.545Z,9.90
2022-12-09T15:16:24.097Z,7.97
2022-12-09T15:18:53.594Z,9.93
2022-12-09T15:21:32.422Z,10.15
2022-12-09T15:24:05.697Z,8.50
2022-12-09T15:26:35.197Z,8.93
2022-12-09T15:29:08.945Z,8.95
2022-12-09T15:31:49.615Z,9.10
2022-12-09T15:34:26.324Z,9.63
2022-12-09T15:37:00.720Z,10.63
2022-12-09T15:39:51.045Z,9.65
2022-12-09T15:42:26.081Z,10.32
2022-12-09T15:47:28.224Z,9.45
2022-12-09T15:50:15.738Z,9.38
2022-12-09T15:52:53.723Z,10.30
2022-12-09T15:55:46.004Z,9.45
2022-12-09T15:58:16.985Z,10.38
2022-12-09T16:00:48.852Z,10.10
2022-12-09T16:03:28.411Z,10.17
2022-12-09T16:05:59.948Z,10.90
2022-12-09T16:08:40.640Z,11.15
2022-12-09T16:11:09.521Z,12.90
2022-12-09T16:13:56.598Z,11.98
2022-12-09T16:16:40.858Z,12.05
2022-12-09T16:19:33.556Z,12.50
2022-12-09T16:22:08.662Z,10.75
2022-12-09T16:27:36.949Z,10.57
2022-12-09T16:30:14.728Z,12.38
2022-12-09T16:32:52.686Z,16.40
2022-12-09T16:35:27.256Z,13.63
2022-12-09T16:37:58.067Z,15.38
2022-12-09T16:40:25.947Z,15.03
2022-12-09T16:43:16.681Z,12.60
2022-12-09T16:46:17.892Z,11.87
2022-12-09T16:48:49.267Z,14.87
2022-12-09T16:51:22.545Z,14.93
2022-12-09T16:53:52.439Z,13.67
2022-12-09T16:56:28.883Z,12.73
2022-12-09T16:58:59.156Z,13.00
2022-12-09T17:01:41.353Z,13.50
2022-12-09T17:04:18.847Z,12.77
2022-12-09T17:06:46.914Z,13.80
2022-12-09T17:09:14.894Z,14.07
2022-12-09T17:11:48.570Z,11.77
2022-12-09T17:14:18.021Z,11.83
2022-12-09T17:16:50.781Z,11.27
2022-12-09T17:19:22.728Z,11.73
2022-12-09T17:21:52.115Z,12.53
2022-12-09T17:24:20.906Z,12.80
2022-12-09T17:26:48.799Z,14.07
2022-12-09T17:29:16.691Z,13.43
2022-12-09T17:31:44.736Z,15.07
2022-12-09T17:34:12.748Z,16.57
2022-12-09T17:36:40.617Z,16.23
2022-12-09T17:39:09.486Z,16.40
2022-12-09T17:41:37.549Z,18.70
2022-12-09T17:44:05.806Z,18.30
2022-12-09T17:46:34.499Z,19.43
2022-12-09T17:49:02.959Z,19.00
2022-12-09T17:51:35.978Z,18.47
2022-12-09T17:54:04.853Z,19.77
2022-12-09T17:56:32.841Z,18.67
2022-12-09T17:59:10.224Z,19.17
2022-12-09T18:01:41.046Z,19.37
2022-12-09T18:04:10.623Z,20.63
2022-12-09T18:06:43.104Z,19.83
2022-12-09T18:09:13.813Z,20.73
2022-12-09T18:11:42.566Z,20.33
2022-12-09T18:14:10.684Z,19.03
2022-12-09T18:16:38.861Z,20.20
2022-12-09T18:19:10.577Z,22.20
2022-12-09T18:21:38.530Z,22.10
2022-12-09T18:24:06.821Z,21.43
2022-12-09T18:26:41.618Z,21.27
2022-12-09T18:29:11.205Z,21.07
2022-12-09T18:31:40.237Z,21.70
2022-12-09T18:34:08.521Z,22.93
2022-12-09T18:36:36.593Z,22.97
2022-12-09T18:39:05.083Z,22.63
2022-12-09T18:41:33.589Z,24.70
2022-12-09T18:44:04.852Z,23.20
2022-12-09T18:46:36.532Z,24.07
2022-12-09T18:49:04.880Z,21.87
2022-12-09T18:51:33.205Z,24.17
2022-12-09T18:54:02.551Z,23.03
2022-12-09T18:56:30.663Z,22.70
2022-12-09T18:59:08.400Z,22.83
2022-12-09T19:01:41.084Z,21.23
2022-12-09T19:04:21.836Z,24.80
2022-12-09T19:06:51.628Z,25.33
2022-12-09T19:09:23.440Z,26.60
2022-12-09T19:11:52.602Z,25.27
2022-12-09T19:14:22.376Z,25.33
2022-12-09T19:16:51.561Z,26.47
2022-12-09T19:19:23.347Z,25.57
2022-12-09T19:21:53.015Z,25.30
2022-12-09T19:24:31.762Z,23.83
2022-12-09T19:27:07.282Z,25.40
2022-12-09T19:29:36.640Z,24.43
2022-12-09T19:32:36.544Z,26.10
2022-12-09T19:35:02.250Z,25.02
2022-12-09T19:37:32.675Z,26.87
2022-12-09T19:40:07.770Z,25.30
2022-12-09T19:42:40.109Z,26.67
2022-12-09T19:45:14.192Z,26.17
2022-12-09T19:47:48.627Z,25.67
2022-12-09T19:50:17.491Z,25.73
2022-12-09T19:52:47.105Z,25.03
2022-12-09T19:55:17.513Z,24.23
2022-12-09T19:57:46.091Z,22.93
2022-12-09T20:00:17.441Z,23.40
2022-12-09T20:02:45.890Z,23.40
2022-12-09T20:05:14.639Z,22.73
2022-12-09T20:07:43.155Z,22.70
2022-12-09T20:10:11.945Z,22.90
2022-12-09T20:12:41.749Z,23.37
2022-12-09T20:15:10.982Z,22.50
2022-12-09T20:17:39.537Z,23.87
2022-12-09T20:20:09.537Z,24.17
2022-12-09T20:22:50.008Z,21.77
2022-12-09T20:25:19.198Z,22.97
2022-12-09T20:27:51.067Z,24.30
2022-12-09T20:30:22.525Z,25.40
2022-12-09T20:32:52.106Z,22.93
2022-12-09T20:35:22.344Z,23.73
2022-12-09T20:37:50.967Z,23.30
2022-12-09T20:40:20.327Z,24.33
2022-12-09T20:42:52.088Z,24.97
2022-12-09T20:45:21.114Z,22.07
2022-12-09T20:47:49.706Z,21.67
2022-12-09T20:50:20.827Z,22.53
2022-12-09T20:52:55.462Z,21.47
2022-12-09T20:55:26.866Z,21.95
2022-12-09T20:57:55.278Z,21.90
2022-12-09T21:00:23.814Z,19.60
2022-12-09T21:02:53.004Z,20.33
2022-12-09T21:05:21.343Z,21.73
2022-12-09T21:07:49.752Z,21.37
2022-12-09T21:10:18.452Z,19.80
2022-12-09T21:12:46.853Z,20.37
2022-12-09T21:15:15.274Z,22.33
2022-12-09T21:17:46.819Z,21.07
2022-12-09T21:20:15.610Z,19.83
2022-12-09T21:22:44.110Z,23.07
2022-12-09T21:25:13.902Z,24.57
2022-12-09T21:27:45.541Z,23.80
2022-12-09T21:30:17.225Z,22.93
2022-12-09T21:32:45.719Z,22.30
2022-12-09T21:35:13.971Z,23.47
2022-12-09T21:37:42.271Z,24.03
2022-12-09T21:40:11.330Z,22.17
2022-12-09T21:42:39.799Z,22.40
2022-12-09T21:45:12.276Z,22.93
2022-12-09T21:47:46.548Z,21.90
2022-12-09T21:50:14.778Z,22.77
2022-12-09T21:52:45.133Z,21.63
2022-12-09T21:55:13.284Z,20.77
2022-12-09T21:57:41.757Z,24.43
2022-12-09T22:00:10.667Z,20.93
2022-12-09T22:02:39.100Z,22.13
2022-12-09T22:05:08.248Z,22.53
2022-12-09T22:07:36.617Z,21.73
2022-12-09T22:10:05.273Z,20.83
2022-12-09T22:12:38.191Z,21.70
2022-12-09T22:15:07.423Z,23.30
2022-12-09T22:17:37.691Z,19.67
2022-12-09T22:20:48.891Z,20.07
2022-12-09T22:22:56.166Z,20.30
2022-12-09T22:25:24.725Z,17.57
2022-12-09T22:27:53.206Z,18.33
2022-12-09T22:30:21.809Z,20.13
2022-12-09T22:32:51.139Z,20.47
2022-12-09T22:35:19.495Z,20.47
2022-12-09T22:37:48.764Z,20.83
2022-12-09T22:40:17.180Z,19.67
2022-12-09T22:42:45.410Z,20.70
2022-12-09T22:45:13.733Z,21.97
2022-12-09T22:47:42.211Z,20.50
2022-12-09T22:50:11.645Z,20.17
2022-12-09T22:52:41.155Z,21.80
2022-12-09T22:55:09.877Z,21.07
2022-12-09T22:57:38.694Z,22.33
2022-12-09T23:00:11.615Z,20.00
2022-12-09T23:02:41.010Z,20.03
2022-12-09T23:05:09.906Z,21.63
2022-12-09T23:07:44.493Z,19.27
2022-12-09T23:10:13.249Z,22.20
2022-12-09T23:12:41.626Z,20.97
2022-12-09T23:15:09.938Z,21.17
2022-12-09T23:17:37.912Z,20.57
2022-12-09T23:20:07.054Z,20.70
2022-12-09T23:22:35.345Z,21.10
2022-12-09T23:25:03.517Z,23.13
2022-12-09T23:27:31.422Z,22.00
2022-12-09T23:29:59.342Z,21.53
2022-12-09T23:32:27.476Z,21.07
2022-12-09T23:34:55.353Z,21.30
2022-12-09T23:37:23.446Z,20.33
2022-12-09T23:39:51.368Z,21.10
2022-12-09T23:42:20.735Z,19.67
2022-12-09T23:44:48.940Z,19.27
2022-12-09T23:47:16.922Z,19.67
2022-12-09T23:49:44.804Z,21.13
2022-12-09T23:52:12.729Z,20.40
2022-12-09T23:54:40.705Z,19.87
2022-12-09T23:57:08.540Z,20.20
2022-12-09T23:59:36.519Z,18.03
